sensor_id;sensor_type;location;lat;lon;timestamp;temperature;humidity
22716;DHT22;11525;51.152;4.456;2022-12-18T00:01:16;-3.30;99.90
22716;DHT22;11525;51.152;4.456;2022-12-18T00:03:42;-3.20;99.90
22716;DHT22;11525;51.152;4.456;2022-12-18T00:06:08;-3.30;99.90
22716;DHT22;11525;51.152;4.456;2022-12-18T00:08:34;-3.30;99.90
22716;DHT22;11525;51.152;4.456;2022-12-18T00:11:05;-3.20;99.90
22716;DHT22;11525;51.152;4.456;2022-12-18T00:13:31;-3.40;99.90
22716;DHT22;11525;51.152;4.456;2022-12-18T00:16:06;-3.50;99.90
22716;DHT22;11525;51.152;4.456;2022-12-18T00:18:32;-3.40;99.90
22716;DHT22;11525;51.152;4.456;2022-12-18T00:21:00;-3.50;99.90
22716;DHT22;11525;51.152;4.456;2022-12-18T00:23:27;-3.60;99.90
22716;DHT22;11525;51.152;4.456;2022-12-18T00:25:52;-3.60;99.90
22716;DHT22;11525;51.152;4.456;2022-12-18T00:28:18;-3.80;99.90
22716;DHT22;11525;51.152;4.456;2022-12-18T00:30:44;-3.80;99.90
22716;DHT22;11525;51.152;4.456;2022-12-18T00:33:10;-4.00;99.90
22716;DHT22;11525;51.152;4.456;2022-12-18T00:35:36;-4.00;99.90
22716;DHT22;11525;51.152;4.456;2022-12-18T00:38:02;-4.10;99.90
22716;DHT22;11525;51.152;4.456;2022-12-18T00:40:28;-4.10;99.90
22716;DHT22;11525;51.152;4.456;2022-12-18T00:42:53;-4.10;99.90
22716;DHT22;11525;51.152;4.456;2022-12-18T00:45:27;-4.10;99.90
22716;DHT22;11525;51.152;4.456;2022-12-18T00:47:54;-4.00;99.90
22716;DHT22;11525;51.152;4.456;2022-12-18T00:50:24;-4.10;99.90
22716;DHT22;11525;51.152;4.456;2022-12-18T00:52:51;-4.20;99.90
22716;DHT22;11525;51.152;4.456;2022-12-18T00:55:17;-4.10;99.90
22716;DHT22;11525;51.152;4.456;2022-12-18T00:57:46;-4.00;99.90
22716;DHT22;11525;51.152;4.456;2022-12-18T01:00:14;-4.10;99.90
22716;DHT22;11525;51.152;4.456;2022-12-18T01:02:40;-4.20;99.90
22716;DHT22;11525;51.152;4.456;2022-12-18T01:05:08;-4.20;99.90
22716;DHT22;11525;51.152;4.456;2022-12-18T01:07:37;-4.10;99.90
22716;DHT22;11525;51.152;4.456;2022-12-18T01:10:05;-4.20;99.90
22716;DHT22;11525;51.152;4.456;2022-12-18T01:12:34;-4.30;99.90
22716;DHT22;11525;51.152;4.456;2022-12-18T01:15:13;-4.30;99.90
22716;DHT22;11525;51.152;4.456;2022-12-18T01:17:47;-4.30;99.90
22716;DHT22;11525;51.152;4.456;2022-12-18T01:20:33;-4.10;99.90
22716;DHT22;11525;51.152;4.456;2022-12-18T01:22:59;-3.80;99.90
22716;DHT22;11525;51.152;4.456;2022-12-18T01:25:46;-3.80;99.90
22716;DHT22;11525;51.152;4.456;2022-12-18T01:28:17;-3.80;99.90
22716;DHT22;11525;51.152;4.456;2022-12-18T01:30:46;-3.90;99.90
22716;DHT22;11525;51.152;4.456;2022-12-18T01:33:25;-4.10;99.90
22716;DHT22;11525;51.152;4.456;2022-12-18T01:39:40;-4.40;99.90
22716;DHT22;11525;51.152;4.456;2022-12-18T01:42:23;-4.40;99.90
22716;DHT22;11525;51.152;4.456;2022-12-18T01:47:54;-4.50;99.90
22716;DHT22;11525;51.152;4.456;2022-12-18T01:50:34;-4.50;99.90
22716;DHT22;11525;51.152;4.456;2022-12-18T01:55:50;-4.50;99.90
22716;DHT22;11525;51.152;4.456;2022-12-18T01:58:17;-4.50;99.90
22716;DHT22;11525;51.152;4.456;2022-12-18T02:00:43;-4.50;99.90
22716;DHT22;11525;51.152;4.456;2022-12-18T02:03:10;-4.30;99.90
22716;DHT22;11525;51.152;4.456;2022-12-18T02:05:44;-4.40;99.90
22716;DHT22;11525;51.152;4.456;2022-12-18T02:08:26;-4.30;99.90
22716;DHT22;11525;51.152;4.456;2022-12-18T02:11:12;-4.10;99.90
22716;DHT22;11525;51.152;4.456;2022-12-18T02:16:52;-4.20;99.90
22716;DHT22;11525;51.152;4.456;2022-12-18T02:19:35;-4.10;99.90
22716;DHT22;11525;51.152;4.456;2022-12-18T02:22:27;-4.20;99.90
22716;DHT22;11525;51.152;4.456;2022-12-18T02:27:21;-4.20;99.90
22716;DHT22;11525;51.152;4.456;2022-12-18T02:29:49;-4.40;99.90
22716;DHT22;11525;51.152;4.456;2022-12-18T02:32:21;-4.30;99.90
22716;DHT22;11525;51.152;4.456;2022-12-18T02:34:49;-4.30;99.90
22716;DHT22;11525;51.152;4.456;2022-12-18T02:37:18;-4.20;99.90
22716;DHT22;11525;51.152;4.456;2022-12-18T02:39:47;-4.20;99.90
22716;DHT22;11525;51.152;4.456;2022-12-18T02:42:14;-4.20;99.90
22716;DHT22;11525;51.152;4.456;2022-12-18T02:44:46;-4.20;99.90
22716;DHT22;11525;51.152;4.456;2022-12-18T02:47:13;-4.20;99.90
22716;DHT22;11525;51.152;4.456;2022-12-18T02:55:53;-4.40;99.90
22716;DHT22;11525;51.152;4.456;2022-12-18T03:01:25;-4.30;99.90
22716;DHT22;11525;51.152;4.456;2022-12-18T03:03:55;-4.20;99.90
22716;DHT22;11525;51.152;4.456;2022-12-18T03:06:30;-4.30;99.90
22716;DHT22;11525;51.152;4.456;2022-12-18T03:09:06;-4.30;99.90
22716;DHT22;11525;51.152;4.456;2022-12-18T03:11:34;-4.50;99.90
22716;DHT22;11525;51.152;4.456;2022-12-18T03:14:21;-4.50;99.90
22716;DHT22;11525;51.152;4.456;2022-12-18T03:16:52;-4.40;99.90
22716;DHT22;11525;51.152;4.456;2022-12-18T03:19:22;-4.50;99.90
22716;DHT22;11525;51.152;4.456;2022-12-18T03:21:52;-4.60;99.90
22716;DHT22;11525;51.152;4.456;2022-12-18T03:24:20;-4.50;99.90
22716;DHT22;11525;51.152;4.456;2022-12-18T03:26:49;-4.40;99.90
22716;DHT22;11525;51.152;4.456;2022-12-18T03:29:23;-4.20;99.90
22716;DHT22;11525;51.152;4.456;2022-12-18T03:31:54;-4.10;99.90
22716;DHT22;11525;51.152;4.456;2022-12-18T03:34:32;-4.20;99.90
22716;DHT22;11525;51.152;4.456;2022-12-18T03:36:59;-4.10;99.90
22716;DHT22;11525;51.152;4.456;2022-12-18T03:39:25;-4.20;99.90
22716;DHT22;11525;51.152;4.456;2022-12-18T03:42:25;-4.20;99.90
22716;DHT22;11525;51.152;4.456;2022-12-18T03:45:12;-4.30;99.90
22716;DHT22;11525;51.152;4.456;2022-12-18T03:48:01;-4.40;99.90
22716;DHT22;11525;51.152;4.456;2022-12-18T03:56:12;-4.30;99.90
22716;DHT22;11525;51.152;4.456;2022-12-18T03:58:40;-4.30;99.90
22716;DHT22;11525;51.152;4.456;2022-12-18T04:01:08;-4.40;99.90
22716;DHT22;11525;51.152;4.456;2022-12-18T04:03:36;-4.40;99.90
22716;DHT22;11525;51.152;4.456;2022-12-18T04:06:03;-4.30;99.90
22716;DHT22;11525;51.152;4.456;2022-12-18T04:08:30;-4.20;99.90
22716;DHT22;11525;51.152;4.456;2022-12-18T04:10:57;-4.40;99.90
22716;DHT22;11525;51.152;4.456;2022-12-18T04:13:28;-4.40;99.90
22716;DHT22;11525;51.152;4.456;2022-12-18T04:15:54;-4.40;99.90
22716;DHT22;11525;51.152;4.456;2022-12-18T04:18:20;-4.20;99.90
22716;DHT22;11525;51.152;4.456;2022-12-18T04:20:46;-4.20;99.90
22716;DHT22;11525;51.152;4.456;2022-12-18T04:23:12;-4.30;99.90
22716;DHT22;11525;51.152;4.456;2022-12-18T04:25:38;-4.30;99.90
22716;DHT22;11525;51.152;4.456;2022-12-18T04:28:03;-4.30;99.90
22716;DHT22;11525;51.152;4.456;2022-12-18T04:30:29;-4.40;99.90
22716;DHT22;11525;51.152;4.456;2022-12-18T04:32:55;-4.40;99.90
22716;DHT22;11525;51.152;4.456;2022-12-18T04:35:21;-4.40;99.90
22716;DHT22;11525;51.152;4.456;2022-12-18T04:37:47;-4.50;99.90
22716;DHT22;11525;51.152;4.456;2022-12-18T04:40:13;-4.60;99.90
22716;DHT22;11525;51.152;4.456;2022-12-18T04:42:40;-4.50;99.90
22716;DHT22;11525;51.152;4.456;2022-12-18T04:45:06;-4.40;99.90
22716;DHT22;11525;51.152;4.456;2022-12-18T04:47:32;-4.50;99.90
22716;DHT22;11525;51.152;4.456;2022-12-18T04:49:58;-4.50;99.90
22716;DHT22;11525;51.152;4.456;2022-12-18T04:52:24;-4.40;99.90
22716;DHT22;11525;51.152;4.456;2022-12-18T04:54:50;-4.40;99.90
22716;DHT22;11525;51.152;4.456;2022-12-18T04:57:16;-4.40;99.90
22716;DHT22;11525;51.152;4.456;2022-12-18T04:59:43;-4.30;99.90
22716;DHT22;11525;51.152;4.456;2022-12-18T05:02:09;-4.30;99.90
22716;DHT22;11525;51.152;4.456;2022-12-18T05:04:35;-4.40;99.90
22716;DHT22;11525;51.152;4.456;2022-12-18T05:07:01;-4.40;99.90
22716;DHT22;11525;51.152;4.456;2022-12-18T05:09:27;-4.30;99.90
22716;DHT22;11525;51.152;4.456;2022-12-18T05:11:53;-4.40;99.90
22716;DHT22;11525;51.152;4.456;2022-12-18T05:14:19;-4.30;99.90
22716;DHT22;11525;51.152;4.456;2022-12-18T05:16:45;-4.30;99.90
22716;DHT22;11525;51.152;4.456;2022-12-18T05:19:11;-4.30;99.90
22716;DHT22;11525;51.152;4.456;2022-12-18T05:21:37;-4.40;99.90
22716;DHT22;11525;51.152;4.456;2022-12-18T05:24:03;-4.40;99.90
22716;DHT22;11525;51.152;4.456;2022-12-18T05:26:29;-4.40;99.90
22716;DHT22;11525;51.152;4.456;2022-12-18T05:28:57;-4.50;99.90
22716;DHT22;11525;51.152;4.456;2022-12-18T05:31:23;-4.50;99.90
22716;DHT22;11525;51.152;4.456;2022-12-18T05:33:49;-4.50;99.90
22716;DHT22;11525;51.152;4.456;2022-12-18T05:36:14;-4.50;99.90
22716;DHT22;11525;51.152;4.456;2022-12-18T05:38:40;-4.50;99.90
22716;DHT22;11525;51.152;4.456;2022-12-18T05:41:07;-4.40;99.90
22716;DHT22;11525;51.152;4.456;2022-12-18T05:43:35;-4.50;99.90
22716;DHT22;11525;51.152;4.456;2022-12-18T05:46:11;-4.60;99.90
22716;DHT22;11525;51.152;4.456;2022-12-18T05:48:38;-4.50;99.90
22716;DHT22;11525;51.152;4.456;2022-12-18T05:51:07;-4.60;99.90
22716;DHT22;11525;51.152;4.456;2022-12-18T05:53:33;-4.50;99.90
22716;DHT22;11525;51.152;4.456;2022-12-18T05:56:04;-4.30;99.90
22716;DHT22;11525;51.152;4.456;2022-12-18T05:58:30;-4.40;99.90
22716;DHT22;11525;51.152;4.456;2022-12-18T06:00:56;-4.40;99.90
22716;DHT22;11525;51.152;4.456;2022-12-18T06:03:22;-4.50;99.90
22716;DHT22;11525;51.152;4.456;2022-12-18T06:05:48;-4.40;99.90
22716;DHT22;11525;51.152;4.456;2022-12-18T06:08:14;-4.40;99.90
22716;DHT22;11525;51.152;4.456;2022-12-18T06:10:41;-4.40;99.90
22716;DHT22;11525;51.152;4.456;2022-12-18T06:13:07;-4.20;99.90
22716;DHT22;11525;51.152;4.456;2022-12-18T06:15:36;-4.20;99.90
22716;DHT22;11525;51.152;4.456;2022-12-18T06:18:02;-4.40;99.90
22716;DHT22;11525;51.152;4.456;2022-12-18T06:20:28;-4.50;99.90
22716;DHT22;11525;51.152;4.456;2022-12-18T06:22:57;-4.50;99.90
22716;DHT22;11525;51.152;4.456;2022-12-18T06:25:23;-4.40;99.90
22716;DHT22;11525;51.152;4.456;2022-12-18T06:27:51;-4.50;99.90
22716;DHT22;11525;51.152;4.456;2022-12-18T06:30:17;-4.50;99.90
22716;DHT22;11525;51.152;4.456;2022-12-18T06:32:43;-4.40;99.90
22716;DHT22;11525;51.152;4.456;2022-12-18T06:35:09;-4.50;99.90
22716;DHT22;11525;51.152;4.456;2022-12-18T06:37:35;-4.50;99.90
22716;DHT22;11525;51.152;4.456;2022-12-18T06:40:01;-4.50;99.90
22716;DHT22;11525;51.152;4.456;2022-12-18T06:42:28;-4.50;99.90
22716;DHT22;11525;51.152;4.456;2022-12-18T06:44:57;-4.60;99.90
22716;DHT22;11525;51.152;4.456;2022-12-18T06:47:23;-4.60;99.90
22716;DHT22;11525;51.152;4.456;2022-12-18T06:49:49;-4.60;99.90
22716;DHT22;11525;51.152;4.456;2022-12-18T06:52:15;-4.70;99.90
22716;DHT22;11525;51.152;4.456;2022-12-18T06:54:40;-4.60;99.90
22716;DHT22;11525;51.152;4.456;2022-12-18T06:57:06;-4.70;99.90
22716;DHT22;11525;51.152;4.456;2022-12-18T06:59:32;-4.80;99.90
22716;DHT22;11525;51.152;4.456;2022-12-18T07:01:58;-4.70;99.90
22716;DHT22;11525;51.152;4.456;2022-12-18T07:04:28;-4.80;99.90
22716;DHT22;11525;51.152;4.456;2022-12-18T07:06:55;-4.90;99.90
22716;DHT22;11525;51.152;4.456;2022-12-18T07:09:21;-4.80;99.90
22716;DHT22;11525;51.152;4.456;2022-12-18T07:11:47;-4.70;99.90
22716;DHT22;11525;51.152;4.456;2022-12-18T07:14:13;-4.70;99.90
22716;DHT22;11525;51.152;4.456;2022-12-18T07:16:38;-4.40;99.90
22716;DHT22;11525;51.152;4.456;2022-12-18T07:19:04;-3.70;99.90
22716;DHT22;11525;51.152;4.456;2022-12-18T07:21:30;-3.80;99.90
22716;DHT22;11525;51.152;4.456;2022-12-18T07:23:56;-3.90;99.90
22716;DHT22;11525;51.152;4.456;2022-12-18T07:26:22;-4.10;99.90
22716;DHT22;11525;51.152;4.456;2022-12-18T07:28:48;-4.10;99.90
22716;DHT22;11525;51.152;4.456;2022-12-18T07:31:20;-4.20;99.90
22716;DHT22;11525;51.152;4.456;2022-12-18T07:33:46;-4.20;99.90
22716;DHT22;11525;51.152;4.456;2022-12-18T07:36:13;-4.00;99.90
22716;DHT22;11525;51.152;4.456;2022-12-18T07:38:39;-3.90;99.90
22716;DHT22;11525;51.152;4.456;2022-12-18T07:41:08;-4.20;99.90
22716;DHT22;11525;51.152;4.456;2022-12-18T07:43:34;-4.20;99.90
22716;DHT22;11525;51.152;4.456;2022-12-18T07:46:01;-4.20;99.90
22716;DHT22;11525;51.152;4.456;2022-12-18T07:48:28;-4.30;99.90
22716;DHT22;11525;51.152;4.456;2022-12-18T07:50:57;-4.30;99.90
22716;DHT22;11525;51.152;4.456;2022-12-18T07:53:23;-4.10;99.90
22716;DHT22;11525;51.152;4.456;2022-12-18T07:55:48;-4.20;99.90
22716;DHT22;11525;51.152;4.456;2022-12-18T07:58:14;-4.30;99.90
22716;DHT22;11525;51.152;4.456;2022-12-18T08:00:40;-4.40;99.90
22716;DHT22;11525;51.152;4.456;2022-12-18T08:03:06;-4.30;99.90
22716;DHT22;11525;51.152;4.456;2022-12-18T08:05:32;-4.40;99.90
22716;DHT22;11525;51.152;4.456;2022-12-18T08:07:58;-4.30;99.90
22716;DHT22;11525;51.152;4.456;2022-12-18T08:10:24;-4.20;99.90
22716;DHT22;11525;51.152;4.456;2022-12-18T08:12:50;-4.00;99.90
22716;DHT22;11525;51.152;4.456;2022-12-18T08:15:16;-3.90;99.90
22716;DHT22;11525;51.152;4.456;2022-12-18T08:17:42;-4.00;99.90
22716;DHT22;11525;51.152;4.456;2022-12-18T08:20:08;-3.90;99.90
22716;DHT22;11525;51.152;4.456;2022-12-18T08:22:35;-3.70;99.90
22716;DHT22;11525;51.152;4.456;2022-12-18T08:25:03;-3.70;99.90
22716;DHT22;11525;51.152;4.456;2022-12-18T08:27:30;-3.60;99.90
22716;DHT22;11525;51.152;4.456;2022-12-18T08:29:56;-3.70;99.90
22716;DHT22;11525;51.152;4.456;2022-12-18T08:32:23;-3.80;99.90
22716;DHT22;11525;51.152;4.456;2022-12-18T08:34:49;-3.60;99.90
22716;DHT22;11525;51.152;4.456;2022-12-18T08:37:15;-3.50;99.90
22716;DHT22;11525;51.152;4.456;2022-12-18T08:39:41;-3.60;99.90
22716;DHT22;11525;51.152;4.456;2022-12-18T08:42:18;-3.40;99.90
22716;DHT22;11525;51.152;4.456;2022-12-18T08:45:03;-3.30;99.90
22716;DHT22;11525;51.152;4.456;2022-12-18T08:47:32;-3.10;99.90
22716;DHT22;11525;51.152;4.456;2022-12-18T08:50:00;-3.00;99.90
22716;DHT22;11525;51.152;4.456;2022-12-18T08:52:26;-2.90;99.90
22716;DHT22;11525;51.152;4.456;2022-12-18T08:54:53;-3.00;99.90
22716;DHT22;11525;51.152;4.456;2022-12-18T08:57:31;-2.90;99.90
22716;DHT22;11525;51.152;4.456;2022-12-18T08:59:57;-2.70;99.90
22716;DHT22;11525;51.152;4.456;2022-12-18T09:02:23;-2.60;99.90
22716;DHT22;11525;51.152;4.456;2022-12-18T09:04:49;-2.50;99.90
22716;DHT22;11525;51.152;4.456;2022-12-18T09:07:14;-2.70;99.90
22716;DHT22;11525;51.152;4.456;2022-12-18T09:09:40;-2.70;99.90
22716;DHT22;11525;51.152;4.456;2022-12-18T09:12:06;-2.40;99.90
22716;DHT22;11525;51.152;4.456;2022-12-18T09:14:32;-2.40;99.90
22716;DHT22;11525;51.152;4.456;2022-12-18T09:16:58;-2.70;99.90
22716;DHT22;11525;51.152;4.456;2022-12-18T09:19:24;-2.50;99.90
22716;DHT22;11525;51.152;4.456;2022-12-18T09:21:52;-2.40;99.90
22716;DHT22;11525;51.152;4.456;2022-12-18T09:24:21;-2.50;99.90
22716;DHT22;11525;51.152;4.456;2022-12-18T09:26:46;-2.90;99.90
22716;DHT22;11525;51.152;4.456;2022-12-18T09:29:15;-2.90;99.90
22716;DHT22;11525;51.152;4.456;2022-12-18T09:31:41;-2.80;99.90
22716;DHT22;11525;51.152;4.456;2022-12-18T09:34:11;-2.60;99.90
22716;DHT22;11525;51.152;4.456;2022-12-18T09:36:37;-2.60;99.90
22716;DHT22;11525;51.152;4.456;2022-12-18T09:39:06;-2.40;99.90
